sensor_id;sensor_type;location;lat;lon;timestamp;P1;durP1;ratioP1;P2;durP2;ratioP2
11342;SDS011;5726;42.160;24.746;2022-11-14T00:01:15;27.00;;;15.53;;
11342;SDS011;5726;42.160;24.746;2022-11-14T00:03:40;27.00;;;15.80;;
11342;SDS011;5726;42.160;24.746;2022-11-14T00:06:06;22.83;;;14.90;;
11342;SDS011;5726;42.160;24.746;2022-11-14T00:08:32;25.03;;;17.67;;
11342;SDS011;5726;42.160;24.746;2022-11-14T00:10:58;29.33;;;16.07;;
11342;SDS011;5726;42.160;24.746;2022-11-14T00:13:23;27.63;;;17.07;;
11342;SDS011;5726;42.160;24.746;2022-11-14T00:15:49;27.33;;;17.37;;
11342;SDS011;5726;42.160;24.746;2022-11-14T00:18:18;26.10;;;17.50;;
11342;SDS011;5726;42.160;24.746;2022-11-14T00:20:47;26.73;;;17.57;;
11342;SDS011;5726;42.160;24.746;2022-11-14T00:23:14;30.23;;;18.00;;
11342;SDS011;5726;42.160;24.746;2022-11-14T00:25:39;27.90;;;16.60;;
11342;SDS011;5726;42.160;24.746;2022-11-14T00:28:05;26.70;;;16.13;;
11342;SDS011;5726;42.160;24.746;2022-11-14T00:30:30;27.30;;;16.87;;
11342;SDS011;5726;42.160;24.746;2022-11-14T00:32:55;30.27;;;17.70;;
11342;SDS011;5726;42.160;24.746;2022-11-14T00:35:21;28.50;;;17.20;;
11342;SDS011;5726;42.160;24.746;2022-11-14T00:37:46;25.10;;;16.30;;
11342;SDS011;5726;42.160;24.746;2022-11-14T00:40:12;27.03;;;17.70;;
11342;SDS011;5726;42.160;24.746;2022-11-14T00:42:38;26.47;;;16.23;;
11342;SDS011;5726;42.160;24.746;2022-11-14T00:45:04;26.03;;;16.57;;
11342;SDS011;5726;42.160;24.746;2022-11-14T00:47:30;26.57;;;16.60;;
11342;SDS011;5726;42.160;24.746;2022-11-14T00:49:55;28.20;;;17.83;;
11342;SDS011;5726;42.160;24.746;2022-11-14T00:52:21;31.43;;;17.47;;
11342;SDS011;5726;42.160;24.746;2022-11-14T00:54:46;26.50;;;17.93;;
11342;SDS011;5726;42.160;24.746;2022-11-14T00:57:11;28.67;;;16.93;;
11342;SDS011;5726;42.160;24.746;2022-11-14T00:59:37;25.30;;;17.67;;
11342;SDS011;5726;42.160;24.746;2022-11-14T01:02:02;27.30;;;17.87;;
11342;SDS011;5726;42.160;24.746;2022-11-14T01:04:28;27.83;;;17.80;;
11342;SDS011;5726;42.160;24.746;2022-11-14T01:06:53;28.47;;;18.30;;
11342;SDS011;5726;42.160;24.746;2022-11-14T01:09:18;30.10;;;18.23;;
11342;SDS011;5726;42.160;24.746;2022-11-14T01:11:44;30.67;;;18.03;;
11342;SDS011;5726;42.160;24.746;2022-11-14T01:14:09;31.07;;;19.43;;
11342;SDS011;5726;42.160;24.746;2022-11-14T01:16:35;30.67;;;18.70;;
11342;SDS011;5726;42.160;24.746;2022-11-14T01:19:01;28.27;;;18.33;;
11342;SDS011;5726;42.160;24.746;2022-11-14T01:21:27;30.03;;;18.07;;
11342;SDS011;5726;42.160;24.746;2022-11-14T01:23:52;30.03;;;18.23;;
11342;SDS011;5726;42.160;24.746;2022-11-14T01:26:18;33.87;;;20.43;;
11342;SDS011;5726;42.160;24.746;2022-11-14T01:28:43;30.37;;;18.77;;
11342;SDS011;5726;42.160;24.746;2022-11-14T01:31:13;33.10;;;19.77;;
11342;SDS011;5726;42.160;24.746;2022-11-14T01:33:41;27.50;;;18.10;;
11342;SDS011;5726;42.160;24.746;2022-11-14T01:36:07;35.43;;;18.70;;
11342;SDS011;5726;42.160;24.746;2022-11-14T01:38:34;30.03;;;18.40;;
11342;SDS011;5726;42.160;24.746;2022-11-14T01:41:00;32.07;;;18.80;;
11342;SDS011;5726;42.160;24.746;2022-11-14T01:43:27;31.40;;;18.43;;
11342;SDS011;5726;42.160;24.746;2022-11-14T01:50:57;31.27;;;17.90;;
11342;SDS011;5726;42.160;24.746;2022-11-14T01:53:39;29.23;;;18.37;;
11342;SDS011;5726;42.160;24.746;2022-11-14T01:56:05;29.83;;;18.37;;
11342;SDS011;5726;42.160;24.746;2022-11-14T01:58:34;27.47;;;16.37;;
11342;SDS011;5726;42.160;24.746;2022-11-14T02:01:03;35.03;;;19.23;;
11342;SDS011;5726;42.160;24.746;2022-11-14T02:03:29;28.87;;;17.80;;
11342;SDS011;5726;42.160;24.746;2022-11-14T02:05:55;31.03;;;19.20;;
11342;SDS011;5726;42.160;24.746;2022-11-14T02:08:22;28.07;;;18.03;;
11342;SDS011;5726;42.160;24.746;2022-11-14T02:10:48;29.67;;;18.17;;
11342;SDS011;5726;42.160;24.746;2022-11-14T02:13:13;29.67;;;18.60;;
11342;SDS011;5726;42.160;24.746;2022-11-14T02:15:39;44.87;;;27.43;;
11342;SDS011;5726;42.160;24.746;2022-11-14T02:18:05;50.23;;;31.90;;
11342;SDS011;5726;42.160;24.746;2022-11-14T02:20:32;41.80;;;25.70;;
11342;SDS011;5726;42.160;24.746;2022-11-14T02:23:01;32.97;;;20.07;;
11342;SDS011;5726;42.160;24.746;2022-11-14T02:25:26;28.63;;;18.30;;
11342;SDS011;5726;42.160;24.746;2022-11-14T02:27:52;32.17;;;18.80;;
11342;SDS011;5726;42.160;24.746;2022-11-14T02:30:20;30.43;;;18.77;;
11342;SDS011;5726;42.160;24.746;2022-11-14T02:32:46;37.03;;;19.17;;
11342;SDS011;5726;42.160;24.746;2022-11-14T02:35:11;30.93;;;19.00;;
11342;SDS011;5726;42.160;24.746;2022-11-14T02:37:37;50.63;;;29.33;;
11342;SDS011;5726;42.160;24.746;2022-11-14T02:40:03;41.97;;;23.33;;
11342;SDS011;5726;42.160;24.746;2022-11-14T02:42:29;81.37;;;49.47;;
11342;SDS011;5726;42.160;24.746;2022-11-14T02:44:55;33.10;;;21.20;;
11342;SDS011;5726;42.160;24.746;2022-11-14T02:47:20;28.37;;;17.97;;
11342;SDS011;5726;42.160;24.746;2022-11-14T02:49:45;27.87;;;17.33;;
11342;SDS011;5726;42.160;24.746;2022-11-14T02:52:11;27.80;;;17.07;;
11342;SDS011;5726;42.160;24.746;2022-11-14T02:54:36;25.80;;;16.93;;
11342;SDS011;5726;42.160;24.746;2022-11-14T02:57:02;54.07;;;30.00;;
11342;SDS011;5726;42.160;24.746;2022-11-14T02:59:27;30.90;;;18.40;;
11342;SDS011;5726;42.160;24.746;2022-11-14T03:01:53;25.23;;;16.67;;
11342;SDS011;5726;42.160;24.746;2022-11-14T03:04:18;25.03;;;15.87;;
11342;SDS011;5726;42.160;24.746;2022-11-14T03:06:43;36.07;;;24.73;;
11342;SDS011;5726;42.160;24.746;2022-11-14T03:09:09;99.80;;;58.30;;
11342;SDS011;5726;42.160;24.746;2022-11-14T03:11:34;60.57;;;37.57;;
11342;SDS011;5726;42.160;24.746;2022-11-14T03:13:59;25.17;;;17.60;;
11342;SDS011;5726;42.160;24.746;2022-11-14T03:16:25;25.07;;;15.77;;
11342;SDS011;5726;42.160;24.746;2022-11-14T03:18:50;30.40;;;16.80;;
11342;SDS011;5726;42.160;24.746;2022-11-14T03:21:20;25.63;;;16.87;;
11342;SDS011;5726;42.160;24.746;2022-11-14T03:23:46;26.00;;;16.60;;
11342;SDS011;5726;42.160;24.746;2022-11-14T03:26:12;25.33;;;16.70;;
11342;SDS011;5726;42.160;24.746;2022-11-14T03:28:39;22.60;;;15.00;;
11342;SDS011;5726;42.160;24.746;2022-11-14T03:31:05;21.77;;;14.80;;
11342;SDS011;5726;42.160;24.746;2022-11-14T03:33:32;23.23;;;15.17;;
11342;SDS011;5726;42.160;24.746;2022-11-14T03:35:59;21.20;;;14.60;;
11342;SDS011;5726;42.160;24.746;2022-11-14T03:38:25;21.87;;;14.27;;
11342;SDS011;5726;42.160;24.746;2022-11-14T03:40:51;22.13;;;14.27;;
11342;SDS011;5726;42.160;24.746;2022-11-14T03:43:17;22.20;;;14.40;;
11342;SDS011;5726;42.160;24.746;2022-11-14T03:45:44;22.57;;;14.27;;
11342;SDS011;5726;42.160;24.746;2022-11-14T03:48:10;20.63;;;13.90;;
11342;SDS011;5726;42.160;24.746;2022-11-14T03:50:36;20.87;;;13.50;;
11342;SDS011;5726;42.160;24.746;2022-11-14T03:53:01;25.13;;;15.70;;
11342;SDS011;5726;42.160;24.746;2022-11-14T03:55:27;20.47;;;14.70;;
11342;SDS011;5726;42.160;24.746;2022-11-14T03:57:53;21.17;;;14.37;;
11342;SDS011;5726;42.160;24.746;2022-11-14T04:00:18;19.63;;;13.70;;
11342;SDS011;5726;42.160;24.746;2022-11-14T04:02:44;20.40;;;13.60;;
11342;SDS011;5726;42.160;24.746;2022-11-14T04:05:09;22.97;;;14.03;;
11342;SDS011;5726;42.160;24.746;2022-11-14T04:07:35;20.57;;;14.27;;
11342;SDS011;5726;42.160;24.746;2022-11-14T04:10:00;18.50;;;13.17;;
11342;SDS011;5726;42.160;24.746;2022-11-14T04:12:25;24.40;;;14.23;;
11342;SDS011;5726;42.160;24.746;2022-11-14T04:14:51;21.47;;;15.27;;
11342;SDS011;5726;42.160;24.746;2022-11-14T04:17:16;23.77;;;14.50;;
11342;SDS011;5726;42.160;24.746;2022-11-14T04:19:42;23.23;;;13.90;;
11342;SDS011;5726;42.160;24.746;2022-11-14T04:22:07;21.37;;;13.57;;
11342;SDS011;5726;42.160;24.746;2022-11-14T04:24:33;21.90;;;14.03;;
11342;SDS011;5726;42.160;24.746;2022-11-14T04:26:58;21.83;;;14.97;;
11342;SDS011;5726;42.160;24.746;2022-11-14T04:29:24;22.27;;;14.33;;
11342;SDS011;5726;42.160;24.746;2022-11-14T04:31:49;27.60;;;16.73;;
11342;SDS011;5726;42.160;24.746;2022-11-14T04:34:14;26.23;;;15.27;;
11342;SDS011;5726;42.160;24.746;2022-11-14T04:36:41;24.13;;;14.97;;
11342;SDS011;5726;42.160;24.746;2022-11-14T04:39:07;21.17;;;14.50;;
11342;SDS011;5726;42.160;24.746;2022-11-14T04:41:32;24.50;;;14.53;;
11342;SDS011;5726;42.160;24.746;2022-11-14T04:43:58;31.97;;;17.50;;
11342;SDS011;5726;42.160;24.746;2022-11-14T04:46:23;28.80;;;18.40;;
11342;SDS011;5726;42.160;24.746;2022-11-14T04:48:48;31.00;;;18.27;;
11342;SDS011;5726;42.160;24.746;2022-11-14T04:51:14;32.17;;;19.37;;
11342;SDS011;5726;42.160;24.746;2022-11-14T04:53:40;29.50;;;16.43;;
11342;SDS011;5726;42.160;24.746;2022-11-14T04:56:06;28.07;;;15.87;;
11342;SDS011;5726;42.160;24.746;2022-11-14T04:58:31;26.03;;;16.67;;
11342;SDS011;5726;42.160;24.746;2022-11-14T05:00:57;36.77;;;20.97;;
11342;SDS011;5726;42.160;24.746;2022-11-14T05:03:22;30.30;;;19.57;;
11342;SDS011;5726;42.160;24.746;2022-11-14T05:05:49;32.57;;;17.60;;
11342;SDS011;5726;42.160;24.746;2022-11-14T05:08:14;26.97;;;16.80;;
11342;SDS011;5726;42.160;24.746;2022-11-14T05:10:43;28.40;;;16.23;;
11342;SDS011;5726;42.160;24.746;2022-11-14T05:13:10;25.10;;;16.50;;
11342;SDS011;5726;42.160;24.746;2022-11-14T05:15:36;31.23;;;18.60;;
11342;SDS011;5726;42.160;24.746;2022-11-14T05:18:01;28.47;;;17.03;;
11342;SDS011;5726;42.160;24.746;2022-11-14T05:20:27;42.43;;;23.37;;
11342;SDS011;5726;42.160;24.746;2022-11-14T05:22:53;42.73;;;24.77;;
11342;SDS011;5726;42.160;24.746;2022-11-14T05:25:19;48.40;;;25.93;;
11342;SDS011;5726;42.160;24.746;2022-11-14T05:27:45;47.73;;;26.20;;
11342;SDS011;5726;42.160;24.746;2022-11-14T05:30:11;48.53;;;26.03;;
11342;SDS011;5726;42.160;24.746;2022-11-14T05:32:36;43.20;;;24.00;;
11342;SDS011;5726;42.160;24.746;2022-11-14T05:35:02;43.93;;;26.10;;
11342;SDS011;5726;42.160;24.746;2022-11-14T05:37:28;47.87;;;25.33;;
11342;SDS011;5726;42.160;24.746;2022-11-14T05:39:54;42.03;;;23.37;;
11342;SDS011;5726;42.160;24.746;2022-11-14T05:42:19;53.87;;;25.30;;
11342;SDS011;5726;42.160;24.746;2022-11-14T05:44:44;42.33;;;23.70;;
11342;SDS011;5726;42.160;24.746;2022-11-14T05:47:10;43.93;;;23.20;;
11342;SDS011;5726;42.160;24.746;2022-11-14T05:49:35;46.97;;;20.67;;
11342;SDS011;5726;42.160;24.746;2022-11-14T05:52:01;32.57;;;19.67;;
11342;SDS011;5726;42.160;24.746;2022-11-14T05:54:26;39.70;;;20.87;;
11342;SDS011;5726;42.160;24.746;2022-11-14T05:56:51;34.97;;;19.77;;
11342;SDS011;5726;42.160;24.746;2022-11-14T05:59:17;41.53;;;21.00;;
11342;SDS011;5726;42.160;24.746;2022-11-14T06:01:42;29.87;;;17.80;;
11342;SDS011;5726;42.160;24.746;2022-11-14T06:04:08;24.07;;;14.77;;
11342;SDS011;5726;42.160;24.746;2022-11-14T06:06:33;22.47;;;13.00;;
11342;SDS011;5726;42.160;24.746;2022-11-14T06:08:59;21.53;;;14.07;;
11342;SDS011;5726;42.160;24.746;2022-11-14T06:11:24;23.57;;;13.60;;
11342;SDS011;5726;42.160;24.746;2022-11-14T06:13:49;24.10;;;13.90;;
11342;SDS011;5726;42.160;24.746;2022-11-14T06:16:16;23.93;;;14.20;;
11342;SDS011;5726;42.160;24.746;2022-11-14T06:18:43;23.70;;;14.50;;
11342;SDS011;5726;42.160;24.746;2022-11-14T06:21:10;25.67;;;14.97;;
11342;SDS011;5726;42.160;24.746;2022-11-14T06:23:38;27.80;;;15.97;;
11342;SDS011;5726;42.160;24.746;2022-11-14T06:26:04;30.27;;;15.93;;
11342;SDS011;5726;42.160;24.746;2022-11-14T06:28:32;26.97;;;17.03;;
11342;SDS011;5726;42.160;24.746;2022-11-14T06:30:59;37.40;;;18.77;;
11342;SDS011;5726;42.160;24.746;2022-11-14T06:33:26;31.90;;;17.60;;
11342;SDS011;5726;42.160;24.746;2022-11-14T06:36:00;32.50;;;15.83;;
11342;SDS011;5726;42.160;24.746;2022-11-14T06:38:27;25.97;;;15.77;;
11342;SDS011;5726;42.160;24.746;2022-11-14T06:41:11;29.67;;;15.47;;
11342;SDS011;5726;42.160;24.746;2022-11-14T06:43:37;27.77;;;15.93;;
11342;SDS011;5726;42.160;24.746;2022-11-14T06:46:05;27.93;;;15.63;;
11342;SDS011;5726;42.160;24.746;2022-11-14T06:48:32;29.93;;;17.57;;
11342;SDS011;5726;42.160;24.746;2022-11-14T06:50:58;31.17;;;17.03;;
11342;SDS011;5726;42.160;24.746;2022-11-14T06:53:24;32.37;;;18.60;;
11342;SDS011;5726;42.160;24.746;2022-11-14T06:55:55;34.47;;;19.20;;
11342;SDS011;5726;42.160;24.746;2022-11-14T06:58:36;39.70;;;21.67;;
11342;SDS011;5726;42.160;24.746;2022-11-14T07:01:06;47.30;;;26.23;;
11342;SDS011;5726;42.160;24.746;2022-11-14T07:03:35;51.63;;;27.30;;
11342;SDS011;5726;42.160;24.746;2022-11-14T07:06:00;53.17;;;29.13;;
11342;SDS011;5726;42.160;24.746;2022-11-14T07:08:27;54.70;;;27.83;;
11342;SDS011;5726;42.160;24.746;2022-11-14T07:10:52;45.83;;;25.20;;
11342;SDS011;5726;42.160;24.746;2022-11-14T07:13:18;35.97;;;21.40;;
11342;SDS011;5726;42.160;24.746;2022-11-14T07:15:50;38.67;;;22.13;;
11342;SDS011;5726;42.160;24.746;2022-11-14T07:18:16;32.57;;;20.83;;
11342;SDS011;5726;42.160;24.746;2022-11-14T07:20:42;41.27;;;22.10;;
11342;SDS011;5726;42.160;24.746;2022-11-14T07:23:07;45.17;;;26.10;;
11342;SDS011;5726;42.160;24.746;2022-11-14T07:25:33;48.63;;;25.67;;
11342;SDS011;5726;42.160;24.746;2022-11-14T07:27:58;46.70;;;22.93;;
11342;SDS011;5726;42.160;24.746;2022-11-14T07:30:24;49.37;;;22.37;;
11342;SDS011;5726;42.160;24.746;2022-11-14T07:32:55;43.40;;;23.67;;
11342;SDS011;5726;42.160;24.746;2022-11-14T07:35:22;55.03;;;23.13;;
11342;SDS011;5726;42.160;24.746;2022-11-14T07:37:48;39.03;;;20.60;;
11342;SDS011;5726;42.160;24.746;2022-11-14T07:40:14;37.67;;;20.00;;
11342;SDS011;5726;42.160;24.746;2022-11-14T07:42:40;32.77;;;19.07;;
11342;SDS011;5726;42.160;24.746;2022-11-14T07:45:05;33.93;;;19.60;;
11342;SDS011;5726;42.160;24.746;2022-11-14T07:47:31;32.07;;;19.70;;
11342;SDS011;5726;42.160;24.746;2022-11-14T07:49:56;37.70;;;18.83;;
11342;SDS011;5726;42.160;24.746;2022-11-14T07:52:22;28.23;;;18.43;;
11342;SDS011;5726;42.160;24.746;2022-11-14T07:54:47;28.13;;;16.67;;
11342;SDS011;5726;42.160;24.746;2022-11-14T07:57:13;34.73;;;20.77;;
11342;SDS011;5726;42.160;24.746;2022-11-14T07:59:38;27.30;;;14.53;;
11342;SDS011;5726;42.160;24.746;2022-11-14T08:02:03;31.50;;;16.10;;
11342;SDS011;5726;42.160;24.746;2022-11-14T08:04:29;24.43;;;16.10;;
11342;SDS011;5726;42.160;24.746;2022-11-14T08:06:54;24.90;;;15.20;;
11342;SDS011;5726;42.160;24.746;2022-11-14T08:09:20;22.97;;;15.33;;
11342;SDS011;5726;42.160;24.746;2022-11-14T08:11:47;21.13;;;14.10;;
11342;SDS011;5726;42.160;24.746;2022-11-14T08:14:13;22.57;;;14.33;;
11342;SDS011;5726;42.160;24.746;2022-11-14T08:16:39;22.97;;;13.37;;
11342;SDS011;5726;42.160;24.746;2022-11-14T08:19:04;22.30;;;14.07;;
11342;SDS011;5726;42.160;24.746;2022-11-14T08:21:30;19.20;;;13.57;;
11342;SDS011;5726;42.160;24.746;2022-11-14T08:23:55;19.50;;;12.43;;
11342;SDS011;5726;42.160;24.746;2022-11-14T08:26:21;23.60;;;13.53;;
11342;SDS011;5726;42.160;24.746;2022-11-14T08:28:47;24.73;;;14.37;;
11342;SDS011;5726;42.160;24.746;2022-11-14T08:31:12;18.70;;;12.90;;
11342;SDS011;5726;42.160;24.746;2022-11-14T08:33:38;23.23;;;13.57;;
11342;SDS011;5726;42.160;24.746;2022-11-14T08:36:04;28.27;;;14.13;;
11342;SDS011;5726;42.160;24.746;2022-11-14T08:38:31;18.00;;;13.07;;
11342;SDS011;5726;42.160;24.746;2022-11-14T08:40:57;20.33;;;13.33;;
11342;SDS011;5726;42.160;24.746;2022-11-14T08:43:24;23.80;;;14.37;;
11342;SDS011;5726;42.160;24.746;2022-11-14T08:45:49;18.50;;;13.53;;
11342;SDS011;5726;42.160;24.746;2022-11-14T08:48:15;24.30;;;14.37;;
11342;SDS011;5726;42.160;24.746;2022-11-14T08:50:41;25.10;;;15.57;;
11342;SDS011;5726;42.160;24.746;2022-11-14T08:53:07;22.90;;;15.73;;
11342;SDS011;5726;42.160;24.746;2022-11-14T08:55:32;25.60;;;16.57;;
11342;SDS011;5726;42.160;24.746;2022-11-14T08:57:58;24.17;;;15.30;;
11342;SDS011;5726;42.160;24.746;2022-11-14T09:00:24;20.57;;;13.70;;
11342;SDS011;5726;42.160;24.746;2022-11-14T09:02:49;23.20;;;14.70;;
11342;SDS011;5726;42.160;24.746;2022-11-14T09:05:15;19.73;;;13.57;;
11342;SDS011;5726;42.160;24.746;2022-11-14T09:07:40;24.10;;;14.47;;
11342;SDS011;5726;42.160;24.746;2022-11-14T09:10:05;20.40;;;12.67;;
11342;SDS011;5726;42.160;24.746;2022-11-14T09:12:31;18.70;;;13.33;;
11342;SDS011;5726;42.160;24.746;2022-11-14T09:14:57;20.27;;;12.17;;
11342;SDS011;5726;42.160;24.746;2022-11-14T09:17:23;17.87;;;12.83;;
11342;SDS011;5726;42.160;24.746;2022-11-14T09:19:49;28.03;;;17.67;;
11342;SDS011;5726;42.160;24.746;2022-11-14T09:22:14;24.53;;;17.30;;
11342;SDS011;5726;42.160;24.746;2022-11-14T09:24:40;20.37;;;12.93;;
11342;SDS011;5726;42.160;24.746;2022-11-14T09:27:05;20.63;;;13.47;;
11342;SDS011;5726;42.160;24.746;2022-11-14T09:29:31;22.97;;;15.80;;
11342;SDS011;5726;42.160;24.746;2022-11-14T09:31:56;22.73;;;13.53;;
11342;SDS011;5726;42.160;24.746;2022-11-14T09:34:22;18.67;;;13.37;;
11342;SDS011;5726;42.160;24.746;2022-11-14T09:36:47;19.70;;;13.23;;
11342;SDS011;5726;42.160;24.746;2022-11-14T09:39:13;17.07;;;12.37;;
11342;SDS011;5726;42.160;24.746;2022-11-14T09:47:04;20.47;;;13.50;;
11342;SDS011;5726;42.160;24.746;2022-11-14T09:49:38;21.03;;;13.33;;
11342;SDS011;5726;42.160;24.746;2022-11-14T09:52:27;21.07;;;13.67;;
11342;SDS011;5726;42.160;24.746;2022-11-14T09:55:10;23.20;;;13.97;;
11342;SDS011;5726;42.160;24.746;2022-11-14T09:57:38;22.17;;;13.93;;
11342;SDS011;5726;42.160;24.746;2022-11-14T10:00:19;28.30;;;13.63;;
11342;SDS011;5726;42.160;24.746;2022-11-14T10:27:35;31.10;;;16.67;;
11342;SDS011;5726;42.160;24.746;2022-11-14T10:30:17;26.33;;;17.07;;
11342;SDS011;5726;42.160;24.746;2022-11-14T10:35:34;33.53;;;18.70;;
11342;SDS011;5726;42.160;24.746;2022-11-14T10:38:09;29.90;;;17.87;;
11342;SDS011;5726;42.160;24.746;2022-11-14T10:40:40;30.90;;;19.07;;
11342;SDS011;5726;42.160;24.746;2022-11-14T10:45:52;33.13;;;20.53;;
11342;SDS011;5726;42.160;24.746;2022-11-14T10:51:06;32.07;;;20.57;;
11342;SDS011;5726;42.160;24.746;2022-11-14T10:53:53;31.70;;;19.27;;
11342;SDS011;5726;42.160;24.746;2022-11-14T10:56:22;31.00;;;20.63;;
11342;SDS011;5726;42.160;24.746;2022-11-14T10:58:48;30.83;;;21.57;;
11342;SDS011;5726;42.160;24.746;2022-11-14T11:06:48;28.77;;;19.53;;
11342;SDS011;5726;42.160;24.746;2022-11-14T11:09:16;30.57;;;21.50;;
11342;SDS011;5726;42.160;24.746;2022-11-14T11:12:05;33.07;;;20.73;;
11342;SDS011;5726;42.160;24.746;2022-11-14T11:14:32;31.23;;;19.60;;
11342;SDS011;5726;42.160;24.746;2022-11-14T11:19:36;30.97;;;18.87;;
11342;SDS011;5726;42.160;24.746;2022-11-14T11:22:02;27.63;;;18.30;;
11342;SDS011;5726;42.160;24.746;2022-11-14T11:24:32;33.43;;;18.90;;
11342;SDS011;5726;42.160;24.746;2022-11-14T11:27:21;27.40;;;18.40;;
11342;SDS011;5726;42.160;24.746;2022-11-14T11:32:31;28.57;;;18.70;;
11342;SDS011;5726;42.160;24.746;2022-11-14T11:34:57;30.70;;;18.57;;
11342;SDS011;5726;42.160;24.746;2022-11-14T11:40:17;27.63;;;17.50;;
11342;SDS011;5726;42.160;24.746;2022-11-14T11:42:52;25.97;;;16.87;;
11342;SDS011;5726;42.160;24.746;2022-11-14T11:45:19;25.57;;;17.53;;
11342;SDS011;5726;42.160;24.746;2022-11-14T11:47:52;29.03;;;17.60;;
11342;SDS011;5726;42.160;24.746;2022-11-14T11:50:21;29.57;;;17.07;;
11342;SDS011;5726;42.160;24.746;2022-11-14T11:52:55;26.67;;;16.90;;
11342;SDS011;5726;42.160;24.746;2022-11-14T11:55:31;27.10;;;16.27;;
11342;SDS011;5726;42.160;24.746;2022-11-14T12:00:30;24.87;;;16.20;;
11342;SDS011;5726;42.160;24.746;2022-11-14T12:02:56;25.73;;;16.90;;
11342;SDS011;5726;42.160;24.746;2022-11-14T12:08:14;27.70;;;17.40;;
11342;SDS011;5726;42.160;24.746;2022-11-14T12:10:43;32.40;;;17.67;;
11342;SDS011;5726;42.160;24.746;2022-11-14T12:13:14;23.03;;;15.80;;
11342;SDS011;5726;42.160;24.746;2022-11-14T12:21:24;22.80;;;15.67;;
11342;SDS011;5726;42.160;24.746;2022-11-14T12:32:11;25.37;;;15.90;;
11342;SDS011;5726;42.160;24.746;2022-11-14T12:34:40;22.93;;;15.07;;
11342;SDS011;5726;42.160;24.746;2022-11-14T12:37:13;28.93;;;17.47;;
11342;SDS011;5726;42.160;24.746;2022-11-14T12:40:47;26.00;;;16.13;;
11342;SDS011;5726;42.160;24.746;2022-11-14T12:42:49;26.53;;;16.60;;
11342;SDS011;5726;42.160;24.746;2022-11-14T12:50:49;28.73;;;16.20;;
11342;SDS011;5726;42.160;24.746;2022-11-14T13:01:46;26.80;;;17.37;;
11342;SDS011;5726;42.160;24.746;2022-11-14T13:10:12;29.57;;;17.20;;
11342;SDS011;5726;42.160;24.746;2022-11-14T13:12:40;28.17;;;16.83;;
11342;SDS011;5726;42.160;24.746;2022-11-14T13:18:33;27.73;;;16.33;;
11342;SDS011;5726;42.160;24.746;2022-11-14T13:21:19;27.73;;;17.47;;
11342;SDS011;5726;42.160;24.746;2022-11-14T13:24:10;33.00;;;19.33;;
11342;SDS011;5726;42.160;24.746;2022-11-14T13:32:00;23.70;;;15.73;;
11342;SDS011;5726;42.160;24.746;2022-11-14T13:45:56;25.47;;;16.93;;
11342;SDS011;5726;42.160;24.746;2022-11-14T13:48:35;30.53;;;18.10;;
11342;SDS011;5726;42.160;24.746;2022-11-14T13:51:19;28.90;;;16.67;;
11342;SDS011;5726;42.160;24.746;2022-11-14T13:53:46;28.00;;;17.80;;
11342;SDS011;5726;42.160;24.746;2022-11-14T14:02:02;26.77;;;18.13;;
11342;SDS011;5726;42.160;24.746;2022-11-14T14:07:47;28.60;;;18.37;;
11342;SDS011;5726;42.160;24.746;2022-11-14T14:10:33;31.00;;;18.07;;
11342;SDS011;5726;42.160;24.746;2022-11-14T14:16:16;27.47;;;18.63;;
11342;SDS011;5726;42.160;24.746;2022-11-14T14:32:23;19.13;;;13.03;;
11342;SDS011;5726;42.160;24.746;2022-11-14T14:34:48;32.87;;;18.53;;
11342;SDS011;5726;42.160;24.746;2022-11-14T14:37:18;30.93;;;17.90;;
11342;SDS011;5726;42.160;24.746;2022-11-14T14:40:46;26.27;;;15.47;;
11342;SDS011;5726;42.160;24.746;2022-11-14T14:42:51;28.53;;;18.57;;
11342;SDS011;5726;42.160;24.746;2022-11-14T14:45:19;28.37;;;17.97;;
11342;SDS011;5726;42.160;24.746;2022-11-14T14:47:47;26.87;;;17.60;;
11342;SDS011;5726;42.160;24.746;2022-11-14T14:50:21;34.00;;;20.60;;
11342;SDS011;5726;42.160;24.746;2022-11-14T14:52:56;26.60;;;18.00;;
11342;SDS011;5726;42.160;24.746;2022-11-14T14:58:11;38.27;;;21.00;;
11342;SDS011;5726;42.160;24.746;2022-11-14T15:03:30;35.00;;;21.80;;
11342;SDS011;5726;42.160;24.746;2022-11-14T15:06:25;32.67;;;21.43;;
11342;SDS011;5726;42.160;24.746;2022-11-14T15:11:50;35.93;;;22.17;;
11342;SDS011;5726;42.160;24.746;2022-11-14T15:14:19;35.53;;;23.53;;
11342;SDS011;5726;42.160;24.746;2022-11-14T15:16:48;33.07;;;22.37;;
11342;SDS011;5726;42.160;24.746;2022-11-14T15:19:19;36.80;;;22.93;;
11342;SDS011;5726;42.160;24.746;2022-11-14T15:22:00;36.00;;;22.20;;
11342;SDS011;5726;42.160;24.746;2022-11-14T15:25:02;37.17;;;22.47;;
11342;SDS011;5726;42.160;24.746;2022-11-14T15:27:28;39.30;;;22.80;;
11342;SDS011;5726;42.160;24.746;2022-11-14T15:29:57;41.40;;;23.03;;
11342;SDS011;5726;42.160;24.746;2022-11-14T15:32:26;45.70;;;28.27;;
11342;SDS011;5726;42.160;24.746;2022-11-14T15:38:04;43.70;;;26.83;;
11342;SDS011;5726;42.160;24.746;2022-11-14T15:40:40;43.63;;;26.93;;
11342;SDS011;5726;42.160;24.746;2022-11-14T15:45:59;47.03;;;28.57;;
11342;SDS011;5726;42.160;24.746;2022-11-14T15:48:25;51.80;;;30.30;;
11342;SDS011;5726;42.160;24.746;2022-11-14T15:50:50;42.00;;;28.33;;
11342;SDS011;5726;42.160;24.746;2022-11-14T15:55:44;39.07;;;26.63;;
11342;SDS011;5726;42.160;24.746;2022-11-14T15:58:10;44.43;;;28.17;;
11342;SDS011;5726;42.160;24.746;2022-11-14T16:00:37;43.60;;;28.53;;
11342;SDS011;5726;42.160;24.746;2022-11-14T16:03:09;48.30;;;29.33;;
11342;SDS011;5726;42.160;24.746;2022-11-14T16:05:39;50.03;;;30.50;;
11342;SDS011;5726;42.160;24.746;2022-11-14T16:08:04;52.80;;;33.03;;
11342;SDS011;5726;42.160;24.746;2022-11-14T16:10:30;54.23;;;32.83;;
11342;SDS011;5726;42.160;24.746;2022-11-14T16:12:55;59.77;;;34.17;;
11342;SDS011;5726;42.160;24.746;2022-11-14T16:15:21;70.50;;;40.70;;
11342;SDS011;5726;42.160;24.746;2022-11-14T16:17:47;62.10;;;38.17;;
11342;SDS011;5726;42.160;24.746;2022-11-14T16:20:18;65.80;;;37.50;;
11342;SDS011;5726;42.160;24.746;2022-11-14T16:22:46;62.60;;;38.80;;
11342;SDS011;5726;42.160;24.746;2022-11-14T16:25:16;65.23;;;37.77;;
11342;SDS011;5726;42.160;24.746;2022-11-14T16:27:47;55.60;;;35.80;;
11342;SDS011;5726;42.160;24.746;2022-11-14T16:30:14;62.77;;;37.47;;
11342;SDS011;5726;42.160;24.746;2022-11-14T16:32:42;62.80;;;38.30;;
11342;SDS011;5726;42.160;24.746;2022-11-14T16:35:15;65.73;;;39.73;;
11342;SDS011;5726;42.160;24.746;2022-11-14T16:37:43;64.57;;;39.67;;
11342;SDS011;5726;42.160;24.746;2022-11-14T16:40:15;70.83;;;41.10;;
11342;SDS011;5726;42.160;24.746;2022-11-14T16:42:47;61.27;;;36.40;;
11342;SDS011;5726;42.160;24.746;2022-11-14T16:45:17;53.03;;;34.37;;
11342;SDS011;5726;42.160;24.746;2022-11-14T16:47:46;56.77;;;34.07;;
11342;SDS011;5726;42.160;24.746;2022-11-14T16:50:12;51.73;;;33.47;;
11342;SDS011;5726;42.160;24.746;2022-11-14T16:52:38;53.37;;;32.67;;
11342;SDS011;5726;42.160;24.746;2022-11-14T16:55:04;51.40;;;31.80;;
11342;SDS011;5726;42.160;24.746;2022-11-14T16:57:31;55.17;;;32.70;;
11342;SDS011;5726;42.160;24.746;2022-11-14T16:59:56;53.57;;;30.97;;
11342;SDS011;5726;42.160;24.746;2022-11-14T17:02:22;51.83;;;30.77;;
11342;SDS011;5726;42.160;24.746;2022-11-14T17:04:48;46.13;;;29.87;;